Time;durP1;ratioP1;P1;durP2;ratioP2;P2;SDS_P1;SDS_P2;PMS_P1;PMS_P2;Temp;Humidity;BMP_temperature;BMP_pressure;BME280_temperature;BME280_humidity;BME280_pressure;Samples;Min_cycle;Max_cycle;Signal;HPM_P1;HPM_P2
2022/02/02 00:00:56;;;;;;;0.85;0.30;;;;;;;9.40;47.50;98106.09;5086782;28;19927;-72
2022/02/02 00:03:24;;;;;;;1.05;0.40;;;;;;;9.47;47.61;98097.72;5089006;28;20030;-72
2022/02/02 00:06:00;;;;;;;1.45;0.40;;;;;;;9.42;47.67;98093.78;5104918;27;20673;-72
2022/02/02 00:08:32;;;;;;;0.88;0.28;;;;;;;9.37;48.03;98085.63;5090383;28;20020;-72
2022/02/02 00:13:37;;;;;;;1.02;0.40;;;;;;;9.32;47.87;98090.44;5050851;27;20047;-69
2022/02/02 00:16:17;;;;;;;0.50;0.20;;;;;;;9.31;48.06;98082.81;5078491;28;20419;-70
2022/02/02 00:19:15;;;;;;;1.05;0.40;;;;;;;9.30;47.62;98071.63;5101018;28;20137;-70
2022/02/02 00:24:08;;;;;;;1.08;0.45;;;;;;;9.26;48.98;98075.50;5102444;28;20551;-72
2022/02/02 00:26:38;;;;;;;1.17;0.35;;;;;;;9.31;48.93;98090.59;5080071;28;20080;-70
2022/02/02 00:29:10;;;;;;;3.42;0.65;;;;;;;8.94;48.19;98037.91;5100408;28;20092;-70
2022/02/02 00:31:42;;;;;;;1.15;0.40;;;;;;;9.11;48.96;98095.97;5055966;27;20038;-70
2022/02/02 00:34:12;;;;;;;1.65;0.40;;;;;;;9.23;48.90;98094.75;5102408;28;20102;-71
2022/02/02 00:36:47;;;;;;;0.70;0.40;;;;;;;9.42;48.16;98090.38;5092061;28;20020;-71
2022/02/02 00:39:12;;;;;;;2.05;0.50;;;;;;;9.37;48.35;98090.03;5102558;28;20024;-68
2022/02/02 00:41:38;;;;;;;1.70;0.40;;;;;;;9.49;47.48;98088.81;5103628;28;20103;-70
2022/02/02 00:44:04;;;;;;;1.38;0.30;;;;;;;9.60;48.11;98088.59;5102119;28;20035;-71
2022/02/02 00:46:30;;;;;;;1.02;0.30;;;;;;;9.65;47.43;98085.50;5103682;28;20666;-70
2022/02/02 00:49:05;;;;;;;1.42;0.43;;;;;;;9.52;47.70;98077.31;5094854;28;20055;-70
2022/02/02 00:51:41;;;;;;;1.95;0.50;;;;;;;9.90;46.14;98076.13;5035606;28;20034;-70
2022/02/02 00:54:07;;;;;;;0.95;0.28;;;;;;;9.78;45.68;98041.81;5086507;28;20036;-69
2022/02/02 00:56:32;;;;;;;1.02;0.30;;;;;;;9.82;45.58;98043.13;5078424;28;20027;-70
2022/02/02 00:58:58;;;;;;;0.57;0.20;;;;;;;10.08;45.42;98072.66;5087050;28;20020;-70
2022/02/02 01:01:24;;;;;;;1.40;0.35;;;;;;;10.05;45.11;98081.53;5098858;28;20114;-70
2022/02/02 01:03:49;;;;;;;0.88;0.30;;;;;;;10.16;44.91;98098.66;5080400;28;20247;-70
2022/02/02 01:06:18;;;;;;;0.73;0.30;;;;;;;10.19;44.84;98088.75;5094783;28;20093;-70
2022/02/02 01:11:33;;;;;;;0.85;0.30;;;;;;;9.99;46.38;98075.19;5044490;27;20153;-70
2022/02/02 01:19:26;;;;;;;2.65;0.40;;;;;;;9.74;45.19;98031.88;5098052;28;20088;-70
2022/02/02 01:29:57;;;;;;;1.63;0.50;;;;;;;9.37;48.78;98059.69;5100249;28;20145;-70
2022/02/02 01:32:22;;;;;;;0.95;0.40;;;;;;;9.81;46.11;98080.44;5096580;28;20062;-70
2022/02/02 01:34:48;;;;;;;0.70;0.25;;;;;;;9.97;44.79;98076.31;5099000;28;20074;-70
2022/02/02 01:37:16;;;;;;;1.25;0.30;;;;;;;10.11;44.41;98086.13;5101410;28;20775;-70
2022/02/02 01:39:42;;;;;;;1.63;0.28;;;;;;;10.17;44.33;98069.13;5099173;28;20296;-69
2022/02/02 01:42:12;;;;;;;0.75;0.30;;;;;;;10.17;44.15;98069.13;5046074;27;20032;-70
2022/02/02 01:47:04;;;;;;;0.90;0.30;;;;;;;10.14;44.42;98061.63;5099629;28;20130;-70
2022/02/02 01:56:56;;;;;;;0.60;0.25;;;;;;;9.79;44.37;98011.47;5095265;28;20396;-74
2022/02/02 01:59:38;;;;;;;1.38;0.40;;;;;;;9.84;44.33;98016.19;5038383;28;20026;-70
2022/02/02 02:02:05;;;;;;;1.08;0.30;;;;;;;10.13;44.27;98060.81;5102108;28;20032;-70
2022/02/02 02:04:31;;;;;;;0.80;0.30;;;;;;;10.10;44.33;98063.72;5102043;28;20034;-70
2022/02/02 02:06:56;;;;;;;1.05;0.30;;;;;;;9.83;44.43;98012.78;5100875;28;20557;-70
2022/02/02 02:09:25;;;;;;;0.70;0.25;;;;;;;10.06;44.25;98059.81;5088447;28;20039;-71
2022/02/02 02:12:06;;;;;;;1.02;0.32;;;;;;;10.00;44.04;98016.25;5099475;28;20027;-70
2022/02/02 02:16:57;;;;;;;1.02;0.40;;;;;;;10.03;44.61;98039.34;5099384;28;20106;-71
2022/02/02 02:19:24;;;;;;;0.88;0.30;;;;;;;9.97;44.55;98035.56;5047269;27;20453;-70
2022/02/02 02:21:51;;;;;;;1.08;0.30;;;;;;;10.03;44.59;98047.13;5103299;28;20670;-70
2022/02/02 02:24:16;;;;;;;1.88;0.45;;;;;;;10.03;44.50;98034.13;5098364;28;20028;-70
2022/02/02 02:26:42;;;;;;;1.98;0.43;;;;;;;10.10;44.58;98029.16;5100706;28;20036;-70
2022/02/02 02:29:42;;;;;;;1.30;0.40;;;;;;;10.14;44.75;98033.06;5100116;28;20034;-70
2022/02/02 02:56:21;;;;;;;1.05;0.30;;;;;;;10.08;44.65;98011.13;5107371;28;20100;-70
2022/02/02 03:01:49;;;;;;;0.60;0.25;;;;;;;10.12;44.06;98033.19;5050316;28;20477;-69
2022/02/02 03:54:02;;;;;;;0.30;0.10;;;;;;;10.03;47.74;98015.16;5104307;28;20863;-70
2022/02/02 03:56:33;;;;;;;0.30;0.10;;;;;;;9.84;49.03;97987.63;5103163;28;20027;-70
2022/02/02 04:07:07;;;;;;;0.73;0.20;;;;;;;10.43;46.88;98024.91;5103852;28;20135;-72
2022/02/02 04:09:37;;;;;;;0.00;0.00;;;;;;;10.23;48.93;98019.13;5104232;28;20035;-70
2022/02/02 04:17:50;;;;;;;0.68;0.10;;;;;;;10.07;49.83;98014.66;5100350;28;20521;-70
2022/02/02 04:55:53;;;;;;;0.65;0.22;;;;;;;11.15;44.34;98021.75;5101998;28;20466;-70
2022/02/02 05:14:52;;;;;;;0.55;0.20;;;;;;;10.96;46.32;98017.69;5052139;27;20047;-70
2022/02/02 05:22:39;;;;;;;0.30;0.20;;;;;;;10.82;47.40;98026.94;5102295;28;20827;-71
2022/02/02 05:49:41;;;;;;;0.60;0.20;;;;;;;10.96;47.18;98043.69;5090150;28;20034;-70
2022/02/02 05:52:10;;;;;;;0.45;0.10;;;;;;;10.86;48.06;98049.06;5039576;27;20109;-72
2022/02/02 05:54:36;;;;;;;0.40;0.20;;;;;;;10.70;45.83;98000.44;5075394;28;20493;-69
2022/02/02 05:57:02;;;;;;;1.00;0.30;;;;;;;11.13;44.72;98047.13;5089905;28;20058;-70
2022/02/02 05:59:32;;;;;;;0.63;0.20;;;;;;;11.37;44.64;98046.31;5091418;28;20020;-70
2022/02/02 06:01:58;;;;;;;0.73;0.30;;;;;;;11.21;45.72;98049.75;5090600;28;20099;-71
2022/02/02 06:04:29;;;;;;;0.75;0.20;;;;;;;10.85;46.89;98018.81;5091287;28;20028;-69
2022/02/02 06:07:00;;;;;;;0.75;0.20;;;;;;;10.82;48.62;98072.94;5067123;28;20036;-68
2022/02/02 06:09:33;;;;;;;0.45;0.20;;;;;;;10.64;49.32;98062.66;5089520;28;20024;-71
2022/02/02 06:11:59;;;;;;;0.63;0.20;;;;;;;10.42;50.13;98062.25;5063413;28;20110;-67
2022/02/02 06:14:27;;;;;;;0.43;0.15;;;;;;;10.57;50.54;98091.09;5062236;27;20543;-69
2022/02/02 06:16:55;;;;;;;0.73;0.20;;;;;;;10.65;48.56;98074.69;5071028;28;20034;-71
2022/02/02 06:19:22;;;;;;;0.50;0.20;;;;;;;10.57;48.19;98042.50;5092055;28;20027;-69
2022/02/02 06:22:10;;;;;;;0.30;0.10;;;;;;;10.74;49.62;98102.34;5087585;28;20111;-68
2022/02/02 06:24:44;;;;;;;0.00;0.00;;;;;;;10.57;50.89;98106.69;5087542;28;20084;-70
2022/02/02 06:27:10;;;;;;;0.95;0.20;;;;;;;10.45;49.79;98056.75;5083524;28;20036;-68
2022/02/02 06:29:40;;;;;;;0.50;0.20;;;;;;;10.85;47.71;98083.84;5039943;28;20087;-70
2022/02/02 06:32:06;;;;;;;0.77;0.20;;;;;;;10.73;49.49;98090.28;5079654;28;20069;-74
2022/02/02 06:34:33;;;;;;;1.95;0.20;;;;;;;10.78;48.14;98078.44;5094612;28;20028;-71
2022/02/02 06:37:01;;;;;;;0.38;0.10;;;;;;;10.85;47.56;98072.63;5099814;28;20473;-71
2022/02/02 06:39:27;;;;;;;1.00;0.20;;;;;;;11.02;47.31;98094.28;5093135;28;20032;-71
2022/02/02 06:41:56;;;;;;;0.60;0.15;;;;;;;10.56;49.30;98061.66;5097947;28;20019;-71
2022/02/02 06:44:24;;;;;;;0.20;0.13;;;;;;;10.62;49.56;98083.59;5086483;28;20043;-72
2022/02/02 06:46:51;;;;;;;0.32;0.17;;;;;;;10.74;49.03;98081.53;5097988;28;20466;-71
2022/02/02 06:49:18;;;;;;;0.70;0.20;;;;;;;10.86;48.73;98095.88;5095865;28;20039;-71
2022/02/02 06:51:52;;;;;;;0.30;0.20;;;;;;;10.77;49.68;98109.84;5080066;28;20027;-71
2022/02/02 06:54:41;;;;;;;0.90;0.20;;;;;;;10.63;50.26;98095.63;5084649;28;20531;-71
2022/02/02 06:57:16;;;;;;;0.60;0.20;;;;;;;10.61;51.22;98113.19;5097951;28;20089;-71
2022/02/02 06:59:56;;;;;;;0.55;0.08;;;;;;;10.37;51.59;98109.50;5094575;28;20141;-71
2022/02/02 07:08:17;;;;;;;0.80;0.28;;;;;;;10.67;50.01;98125.53;5096839;28;20039;-71
2022/02/02 07:29:42;;;;;;;0.47;0.10;;;;;;;10.84;49.29;98159.41;5101835;28;20039;-71
2022/02/02 07:32:16;;;;;;;0.30;0.20;;;;;;;10.93;47.93;98153.25;5105504;28;20548;-71
2022/02/02 07:37:36;;;;;;;0.10;0.10;;;;;;;10.77;50.23;98164.44;5095057;28;20055;-72
2022/02/02 07:40:08;;;;;;;0.45;0.13;;;;;;;10.91;49.38;98158.63;5102940;28;20027;-71
2022/02/02 07:42:40;;;;;;;0.52;0.15;;;;;;;10.70;48.93;98142.63;5065481;28;20695;-70
2022/02/02 07:45:09;;;;;;;0.77;0.17;;;;;;;10.51;50.38;98139.31;5098141;27;20755;-72
2022/02/02 07:47:43;;;;;;;1.50;0.20;;;;;;;10.71;50.58;98165.06;5085218;28;20053;-70
2022/02/02 07:50:10;;;;;;;0.65;0.10;;;;;;;10.84;49.40;98175.84;5104531;28;20080;-71
2022/02/02 07:52:37;;;;;;;0.47;0.10;;;;;;;10.78;50.47;98186.88;5091573;28;20066;-72
2022/02/02 07:55:05;;;;;;;0.75;0.10;;;;;;;10.71;51.00;98189.25;5086028;28;20023;-71
2022/02/02 07:57:30;;;;;;;0.10;0.10;;;;;;;10.96;48.67;98173.75;5101998;28;20035;-71
2022/02/02 08:00:07;;;;;;;0.20;0.15;;;;;;;10.61;50.65;98146.19;5099906;28;20466;-71
2022/02/02 08:05:04;;;;;;;0.20;0.10;;;;;;;10.56;50.86;98136.22;5059159;27;20575;-72
2022/02/02 08:07:37;;;;;;;0.47;0.15;;;;;;;10.55;52.78;98174.41;5080406;28;20992;-72
2022/02/02 08:10:15;;;;;;;1.08;0.15;;;;;;;10.87;50.66;98175.53;5066796;28;20031;-71
2022/02/02 08:12:57;;;;;;;0.10;0.10;;;;;;;10.74;51.03;98183.75;5096460;28;20058;-71
2022/02/02 08:15:26;;;;;;;1.85;0.20;;;;;;;10.63;51.67;98178.03;5105129;28;20032;-72
2022/02/02 08:17:54;;;;;;;0.50;0.17;;;;;;;10.69;51.23;98187.81;5096190;28;20027;-73
2022/02/02 08:20:19;;;;;;;0.40;0.20;;;;;;;10.72;51.30;98187.50;5050244;28;20042;-71
2022/02/02 08:22:45;;;;;;;2.30;0.57;;;;;;;10.82;50.81;98182.16;5105519;28;20803;-71
2022/02/02 08:25:17;;;;;;;2.97;0.98;;;;;;;10.67;52.58;98167.16;5105432;27;20043;-72
2022/02/02 08:27:46;;;;;;;1.08;0.40;;;;;;;10.69;51.76;98167.00;5103888;28;20169;-72
2022/02/02 08:30:13;;;;;;;0.52;0.28;;;;;;;10.31;52.55;98123.13;5104011;28;20023;-72
2022/02/02 08:32:44;;;;;;;0.22;0.10;;;;;;;10.84;50.88;98177.63;5102917;28;20011;-71
2022/02/02 08:35:10;;;;;;;0.10;0.10;;;;;;;10.81;51.03;98144.13;5051295;27;20034;-71
2022/02/02 08:37:39;;;;;;;0.05;0.05;;;;;;;10.70;51.97;98163.44;5104334;28;20115;-71
2022/02/02 08:40:21;;;;;;;0.40;0.10;;;;;;;10.66;52.11;98159.50;5102708;28;20027;-71
2022/02/02 08:42:47;;;;;;;0.43;0.13;;;;;;;10.71;52.39;98145.06;5105100;28;20096;-71
2022/02/02 08:45:47;;;;;;;0.40;0.10;;;;;;;10.67;52.09;98148.13;5098485;28;20031;-73
2022/02/02 08:48:08;;;;;;;2.28;0.20;;;;;;;10.39;51.94;98096.38;5095591;28;20056;-74
2022/02/02 08:50:46;;;;;;;0.25;0.10;;;;;;;10.79;50.82;98133.91;5052279;27;20038;-71
2022/02/02 08:58:36;;;;;;;0.30;0.10;;;;;;;10.68;52.44;98127.19;5105799;28;20035;-71
2022/02/02 09:01:07;;;;;;;0.52;0.15;;;;;;;10.67;52.33;98132.53;5102151;28;20028;-71
2022/02/02 09:06:16;;;;;;;0.40;0.15;;;;;;;10.83;50.86;98137.00;5055797;27;20786;-72
2022/02/02 09:08:48;;;;;;;2.45;0.63;;;;;;;10.76;51.76;98142.00;5095181;28;20020;-71
2022/02/02 09:35:22;;;;;;;0.30;0.20;;;;;;;11.67;46.81;98132.56;5101507;28;20073;-71
2022/02/02 09:37:48;;;;;;;1.45;0.20;;;;;;;11.22;47.72;98087.78;5030611;27;20023;-71
2022/02/02 09:42:57;;;;;;;0.05;0.05;;;;;;;11.69;43.88;98083.72;5098546;28;20047;-72
2022/02/02 09:45:25;;;;;;;0.38;0.10;;;;;;;12.30;41.68;98117.97;5085936;28;20036;-70
2022/02/02 09:48:01;;;;;;;0.55;0.10;;;;;;;12.25;43.25;98130.72;5099653;28;20032;-70
2022/02/02 09:50:33;;;;;;;0.00;0.00;;;;;;;12.40;41.41;98129.03;5086008;28;20024;-71
2022/02/02 09:53:02;;;;;;;0.98;0.10;;;;;;;12.29;43.05;98126.78;5058437;28;20028;-71
2022/02/02 10:06:27;;;;;;;0.10;0.10;;;;;;;12.68;40.85;98124.19;5101943;28;20031;-70
2022/02/02 10:14:19;;;;;;;0.25;0.10;;;;;;;12.50;42.37;98128.84;5085955;28;20113;-73
2022/02/02 10:16:47;;;;;;;0.63;0.10;;;;;;;12.84;41.09;98125.13;5086830;28;20073;-71
2022/02/02 10:19:21;;;;;;;0.00;0.00;;;;;;;13.01;40.57;98123.22;5085036;28;20027;-70
2022/02/02 10:21:47;;;;;;;0.32;0.10;;;;;;;12.98;40.59;98129.59;5081368;28;20132;-71
2022/02/02 10:24:12;;;;;;;0.10;0.10;;;;;;;12.83;42.25;98144.34;5055106;28;20920;-69
2022/02/02 10:26:49;;;;;;;0.10;0.10;;;;;;;12.86;41.38;98131.78;5076594;28;20424;-69
2022/02/02 10:29:15;;;;;;;0.28;0.10;;;;;;;12.77;41.92;98124.97;5084248;28;20027;-72
2022/02/02 10:31:44;;;;;;;1.15;0.10;;;;;;;12.38;45.89;98138.81;5085712;28;20533;-70
2022/02/02 10:34:17;;;;;;;0.00;0.00;;;;;;;12.61;42.57;98133.69;5094568;28;20039;-72
2022/02/02 10:36:43;;;;;;;0.20;0.10;;;;;;;12.66;43.41;98133.19;5085730;28;20030;-71
2022/02/02 10:39:19;;;;;;;1.38;0.20;;;;;;;12.88;41.66;98129.81;5083099;28;20027;-71
2022/02/02 10:41:50;;;;;;;0.65;0.10;;;;;;;12.83;43.09;98145.19;5049823;28;20040;-70
2022/02/02 10:44:40;;;;;;;0.95;0.22;;;;;;;13.20;38.29;98140.25;5085245;28;20061;-71
2022/02/02 10:47:29;;;;;;;0.90;0.30;;;;;;;13.32;39.79;98133.66;5100018;28;20520;-71
2022/02/02 10:50:25;;;;;;;0.30;0.10;;;;;;;13.15;41.58;98142.56;5082532;28;20388;-69
2022/02/02 10:56:01;;;;;;;0.45;0.08;;;;;;;13.25;39.27;98136.13;5086579;28;20520;-69
2022/02/02 11:06:38;;;;;;;0.20;0.10;;;;;;;13.23;41.27;98145.09;5104980;28;20046;-72
2022/02/02 11:09:05;;;;;;;0.43;0.20;;;;;;;13.19;41.53;98147.25;5106282;28;20034;-74
2022/02/02 11:11:30;;;;;;;1.35;0.20;;;;;;;13.01;41.91;98173.59;5089354;28;20023;-71
2022/02/02 11:14:04;;;;;;;0.20;0.10;;;;;;;13.47;37.54;98149.41;5102693;27;20284;-71
2022/02/02 11:16:32;;;;;;;0.20;0.10;;;;;;;13.47;38.23;98157.25;5107483;27;20081;-70
2022/02/02 11:19:00;;;;;;;0.90;0.20;;;;;;;13.59;40.41;98188.97;5089411;27;20030;-70
2022/02/02 11:21:33;;;;;;;0.50;0.10;;;;;;;13.64;37.32;98168.38;5109947;27;20048;-70
2022/02/02 11:24:13;;;;;;;1.60;0.10;;;;;;;13.40;38.62;98135.41;5103687;27;20092;-71
2022/02/02 11:26:49;;;;;;;0.15;0.10;;;;;;;13.61;36.54;98119.88;5089439;27;20023;-70
2022/02/02 11:29:40;;;;;;;0.28;0.05;;;;;;;13.88;36.71;98145.66;5102568;27;20031;-70
2022/02/02 11:32:08;;;;;;;0.10;0.10;;;;;;;13.44;39.66;98181.88;5102929;28;20030;-71
2022/02/02 11:34:33;;;;;;;0.38;0.10;;;;;;;13.78;36.65;98157.16;5104460;28;20030;-72
2022/02/02 11:37:01;;;;;;;0.25;0.10;;;;;;;14.22;34.61;98148.56;5105792;27;20031;-72
2022/02/02 11:39:43;;;;;;;0.55;0.20;;;;;;;14.35;35.01;98168.88;5100332;28;20016;-72
2022/02/02 11:43:01;;;;;;;0.73;0.20;;;;;;;13.91;37.20;98174.03;5082854;28;20146;-72
2022/02/02 11:45:51;;;;;;;0.10;0.10;;;;;;;13.56;37.36;98145.75;5110061;27;20053;-71
2022/02/02 11:48:51;;;;;;;0.00;0.00;;;;;;;13.64;39.35;98174.41;5099736;27;20450;-70
2022/02/02 11:51:37;;;;;;;0.65;0.25;;;;;;;13.57;38.75;98199.59;5096483;28;20028;-70
2022/02/02 11:54:03;;;;;;;0.40;0.20;;;;;;;13.44;40.07;98170.63;5084527;28;20047;-70
2022/02/02 11:56:30;;;;;;;0.25;0.10;;;;;;;13.16;41.27;98163.28;5113256;27;20051;-70
2022/02/02 11:58:56;;;;;;;0.35;0.10;;;;;;;13.01;43.14;98172.81;5086615;27;20032;-71
2022/02/02 12:01:44;;;;;;;1.67;0.35;;;;;;;12.71;43.99;98172.63;5097712;27;20037;-70
2022/02/02 12:04:44;;;;;;;0.57;0.13;;;;;;;12.93;41.94;98181.50;5099777;27;20019;-70
2022/02/02 12:07:15;;;;;;;0.30;0.10;;;;;;;13.31;39.65;98178.25;5101214;28;20697;-69
2022/02/02 12:09:54;;;;;;;0.10;0.00;;;;;;;13.38;39.72;98163.47;5098182;28;20028;-71
2022/02/02 12:45:54;;;;;;;6.65;6.22;;;;;;;13.60;40.33;98160.06;5105149;28;20085;-66
2022/02/02 12:53:39;;;;;;;0.47;0.10;;;;;;;13.11;41.30;98191.69;5085151;27;20493;-66
2022/02/02 12:53:53;;;;;;;0.00;0.00;;;;;;;13.40;38.96;98136.22;5099760;28;20047;-67
2022/02/02 12:56:33;;;;;;;1.25;0.15;;;;;;;13.37;40.32;98141.78;5095378;28;20015;-67
2022/02/02 13:02:08;;;;;;;0.17;0.03;;;;;;;13.60;36.94;98136.56;5103116;28;20219;-66
2022/02/02 13:04:34;;;;;;;0.30;0.10;;;;;;;13.26;41.33;98129.09;5100064;28;20024;-66
2022/02/02 13:07:11;;;;;;;0.28;0.10;;;;;;;12.82;42.38;98132.31;5083773;28;20396;-66
2022/02/02 13:09:37;;;;;;;0.55;0.03;;;;;;;13.27;39.68;98134.16;5083869;28;20039;-66
2022/02/02 13:12:28;;;;;;;0.57;0.10;;;;;;;12.78;43.83;98142.25;5052054;27;20031;-67
2022/02/02 13:17:27;;;;;;;0.43;0.20;;;;;;;13.13;40.88;98154.97;5103870;28;20085;-66
2022/02/02 13:20:00;;;;;;;0.55;0.17;;;;;;;12.84;41.77;98075.53;5103267;28;20032;-66
2022/02/02 13:22:29;;;;;;;0.43;0.00;;;;;;;12.96;42.46;98104.66;5086907;28;20027;-66
2022/02/02 13:24:54;;;;;;;0.40;0.10;;;;;;;12.93;41.51;98105.81;5102264;28;20114;-66
2022/02/02 13:27:21;;;;;;;0.10;0.10;;;;;;;12.82;43.07;98108.81;5051057;27;20057;-68
2022/02/02 13:29:51;;;;;;;0.50;0.10;;;;;;;12.88;41.52;98105.50;5102783;28;20089;-69
2022/02/02 13:32:37;;;;;;;0.10;0.10;;;;;;;12.72;42.81;98092.56;5105477;28;20023;-66
2022/02/02 13:35:20;;;;;;;0.45;0.13;;;;;;;12.76;42.64;98099.06;5100894;28;20016;-65
2022/02/02 13:48:51;;;;;;;0.43;0.10;;;;;;;13.80;35.74;98061.13;5101362;28;20103;-66
2022/02/02 14:09:30;;;;;;;0.20;0.08;;;;;;;13.18;39.84;98074.31;5096248;28;20374;-67
2022/02/02 14:33:32;;;;;;;1.17;0.30;;;;;;;13.59;37.10;98111.41;5052715;27;20103;-66
2022/02/02 14:36:01;;;;;;;0.38;0.20;;;;;;;13.56;38.81;98110.97;5102603;28;20027;-66
2022/02/02 14:38:33;;;;;;;0.20;0.03;;;;;;;13.25;38.22;98072.66;5101914;28;20080;-63
2022/02/02 14:41:11;;;;;;;0.65;0.10;;;;;;;13.33;38.46;98095.31;5080596;28;20115;-61
2022/02/02 14:43:49;;;;;;;1.73;0.25;;;;;;;13.38;38.37;98135.59;5102550;28;20422;-61
2022/02/02 14:46:17;;;;;;;0.40;0.10;;;;;;;13.79;36.83;98111.72;5101316;28;20027;-62
2022/02/02 14:48:52;;;;;;;0.10;0.10;;;;;;;14.44;33.00;98104.22;5049887;28;20047;-63
2022/02/02 14:54:34;;;;;;;0.43;0.10;;;;;;;14.14;35.73;98126.94;5095525;28;20665;-61
2022/02/02 15:25:02;;;;;;;0.00;0.00;;;;;;;14.15;33.58;98141.63;5079798;28;20092;-62
2022/02/02 15:27:28;;;;;;;0.10;0.00;;;;;;;13.78;36.85;98156.31;5090667;28;20039;-62
2022/02/02 15:32:19;;;;;;;0.60;0.10;;;;;;;13.69;36.50;98145.16;5098584;28;20070;-63
2022/02/02 15:34:52;;;;;;;0.55;0.13;;;;;;;13.58;36.51;98135.94;5101637;28;20146;-62
2022/02/02 15:37:47;;;;;;;0.93;0.10;;;;;;;13.68;34.05;98112.16;5094476;28;20033;-63
2022/02/02 15:40:15;;;;;;;0.20;0.10;;;;;;;13.96;36.09;98164.69;5098394;28;20098;-63
2022/02/02 15:42:54;;;;;;;0.20;0.00;;;;;;;14.02;32.48;98173.63;5102561;28;20489;-63
2022/02/02 15:58:34;;;;;;;0.73;0.10;;;;;;;14.21;33.02;98162.63;5092997;27;20047;-62
2022/02/02 16:03:34;;;;;;;0.20;0.10;;;;;;;13.73;35.20;98138.59;5103880;28;20039;-60
2022/02/02 16:06:09;;;;;;;0.20;0.10;;;;;;;13.44;37.68;98165.41;5081302;28;20127;-63
2022/02/02 16:08:36;;;;;;;1.10;0.20;;;;;;;13.68;35.45;98189.75;5104212;28;20046;-62
2022/02/02 16:11:15;;;;;;;1.10;0.13;;;;;;;13.21;39.10;98194.88;5099453;27;20423;-63
2022/02/02 16:19:16;;;;;;;0.30;0.20;;;;;;;13.69;34.34;98207.03;5104795;28;20043;-63
2022/02/02 16:37:33;;;;;;;0.85;0.43;;;;;;;13.72;35.42;98217.94;5093815;28;20375;-63
2022/02/02 16:40:00;;;;;;;0.98;0.40;;;;;;;13.19;38.10;98217.72;5093094;27;20028;-66
2022/02/02 16:45:12;;;;;;;0.95;0.32;;;;;;;13.65;35.46;98214.38;5092977;27;20114;-65
2022/02/02 16:47:37;;;;;;;0.43;0.17;;;;;;;13.56;36.78;98231.94;5099876;27;20070;-64
2022/02/02 16:50:03;;;;;;;1.00;0.40;;;;;;;13.09;38.40;98222.38;5103817;27;20105;-63
2022/02/02 16:52:31;;;;;;;0.60;0.10;;;;;;;12.94;38.88;98240.53;5096451;27;20031;-64
2022/02/02 16:55:01;;;;;;;0.68;0.30;;;;;;;12.84;38.35;98232.88;5092578;28;20023;-64
2022/02/02 16:57:53;;;;;;;0.95;0.30;;;;;;;12.78;39.90;98224.94;5096628;27;21833;-64
2022/02/02 17:30:14;;;;;;;0.00;0.00;;;;;;;13.45;34.60;98271.50;5089110;27;20047;-64
2022/02/02 17:35:27;;;;;;;0.70;0.30;;;;;;;12.74;39.20;98234.06;5106149;28;20043;-63
2022/02/02 17:56:32;;;;;;;2.42;0.50;;;;;;;12.66;37.57;98276.63;5091431;28;20061;-64
2022/02/02 18:13:15;;;;;;;0.65;0.30;;;;;;;13.37;34.07;98306.28;5101682;28;20461;-63
2022/02/02 18:20:33;;;;;;;2.13;0.60;;;;;;;12.96;35.90;98316.84;5098761;28;20064;-63
2022/02/02 18:23:28;;;;;;;2.15;0.68;;;;;;;13.26;34.84;98336.16;5099892;28;20027;-62
2022/02/02 18:26:08;;;;;;;5.28;0.90;;;;;;;13.30;34.97;98322.78;5087501;27;20118;-65
2022/02/02 18:28:44;;;;;;;2.20;0.70;;;;;;;13.38;34.47;98330.59;5094928;28;21253;-62
2022/02/02 18:31:32;;;;;;;;;;;;;;;13.57;34.07;98345.88;5072498;28;20390;-64
2022/02/02 18:34:15;;;;;;;0.65;0.20;;;;;;;13.62;33.48;98338.34;5018585;27;19916;-63
2022/02/02 18:36:52;;;;;;;1.40;0.40;;;;;;;13.63;32.90;98336.53;5093434;28;20028;-65
2022/02/02 18:50:17;;;;;;;2.20;0.60;;;;;;;13.69;32.74;98348.09;5099400;28;20035;-64
2022/02/02 20:01:50;;;;;;;2.10;0.60;;;;;;;12.21;38.72;98429.16;5098139;27;20074;-64
2022/02/02 20:05:20;;;;;;;1.67;0.52;;;;;;;12.31;39.17;98455.91;5080191;28;20403;-65
2022/02/02 20:10:01;;;;;;;1.67;0.50;;;;;;;12.23;38.49;98467.16;5036897;27;20867;-65
2022/02/02 20:12:30;;;;;;;4.97;1.25;;;;;;;12.38;37.12;98467.34;5096982;28;20368;-64
2022/02/02 20:14:56;;;;;;;4.10;0.95;;;;;;;12.43;36.09;98474.66;5094262;28;20093;-65
2022/02/02 20:17:24;;;;;;;3.03;0.98;;;;;;;12.45;36.82;98473.53;5100702;28;20032;-63
2022/02/02 20:19:55;;;;;;;1.55;0.50;;;;;;;12.59;37.29;98479.91;5097899;27;20658;-63
2022/02/02 20:22:23;;;;;;;1.27;0.40;;;;;;;12.38;38.91;98475.16;5095388;28;20505;-63
2022/02/02 20:25:01;;;;;;;1.85;0.50;;;;;;;12.58;35.53;98472.28;5092495;28;20040;-63
2022/02/02 20:27:29;;;;;;;1.50;0.47;;;;;;;12.54;37.19;98473.53;5083286;28;20538;-63
2022/02/02 20:29:55;;;;;;;1.15;0.30;;;;;;;12.38;37.97;98475.16;5040269;27;20051;-64
2022/02/02 20:32:20;;;;;;;0.75;0.28;;;;;;;12.40;39.61;98475.00;5078850;28;20110;-65
2022/02/02 20:34:46;;;;;;;2.45;0.55;;;;;;;12.27;37.85;98476.28;5092570;28;20028;-63
2022/02/02 20:37:15;;;;;;;0.60;0.20;;;;;;;12.34;39.24;98479.06;5088868;28;20114;-64
2022/02/02 20:39:48;;;;;;;0.90;0.50;;;;;;;12.45;37.66;98470.13;5075309;28;20086;-63
2022/02/02 20:42:15;;;;;;;0.40;0.10;;;;;;;12.64;36.60;98482.84;5077589;28;20032;-63
2022/02/02 21:04:18;;;;;;;1.00;0.35;;;;;;;12.37;37.39;98522.25;5091855;28;20062;-63
2022/02/02 21:06:47;;;;;;;2.30;0.77;;;;;;;12.34;36.54;98519.94;5091094;28;20032;-63
2022/02/02 21:13:39;;;;;;;1.38;0.47;;;;;;;12.15;37.49;98527.06;5055936;27;20089;-62
2022/02/02 21:14:42;;;;;;;1.27;0.40;;;;;;;12.19;37.99;98532.78;5094650;28;20027;-62
2022/02/02 21:17:18;;;;;;;1.35;0.30;;;;;;;12.21;36.19;98539.47;5095065;28;20020;-65
2022/02/02 21:22:19;;;;;;;1.33;0.40;;;;;;;12.28;37.93;98542.25;5094359;28;20092;-62
2022/02/02 21:24:51;;;;;;;1.65;0.50;;;;;;;11.97;38.31;98501.06;5071140;28;20055;-64
2022/02/02 21:27:22;;;;;;;1.85;0.43;;;;;;;12.15;36.33;98536.66;5096292;28;20085;-66
2022/02/02 21:29:48;;;;;;;1.80;0.40;;;;;;;12.20;36.08;98539.63;5041617;28;20165;-64
2022/02/02 21:32:13;;;;;;;0.55;0.20;;;;;;;11.93;35.87;98494.53;5102504;28;20122;-64
2022/02/02 21:34:39;;;;;;;0.68;0.20;;;;;;;12.24;36.32;98535.72;5078605;28;20662;-66
2022/02/02 21:37:06;;;;;;;1.55;0.40;;;;;;;12.28;36.20;98535.28;5082772;28;20039;-64
2022/02/02 21:39:35;;;;;;;0.60;0.30;;;;;;;12.16;35.57;98496.63;5102141;28;20015;-63
2022/02/02 21:42:00;;;;;;;0.73;0.25;;;;;;;12.57;35.00;98535.84;5086583;28;20024;-62
2022/02/02 21:44:26;;;;;;;0.47;0.20;;;;;;;12.71;33.57;98516.16;5085413;28;20038;-63
2022/02/02 21:46:53;;;;;;;0.30;0.20;;;;;;;12.61;34.42;98537.97;5040418;27;20573;-64
2022/02/02 21:49:22;;;;;;;0.55;0.20;;;;;;;12.69;34.43;98539.78;5099086;28;20114;-63
2022/02/02 21:52:09;;;;;;;0.73;0.30;;;;;;;12.50;34.98;98517.38;5100590;27;20035;-64
2022/02/02 21:54:38;;;;;;;0.80;0.25;;;;;;;12.29;37.79;98556.94;5097218;27;20073;-63
2022/02/02 21:57:05;;;;;;;0.95;0.30;;;;;;;12.19;37.45;98541.41;5097899;28;20570;-62
2022/02/02 21:59:33;;;;;;;0.90;0.30;;;;;;;12.42;37.44;98540.84;5100898;28;20118;-64
2022/02/02 22:01:59;;;;;;;0.43;0.20;;;;;;;12.28;40.20;98540.47;5097604;28;20366;-63
2022/02/02 22:04:24;;;;;;;0.85;0.20;;;;;;;12.40;38.34;98543.59;5084910;28;20030;-66
2022/02/02 22:06:49;;;;;;;0.47;0.20;;;;;;;12.47;38.29;98547.22;5058494;28;20526;-65
2022/02/02 22:09:15;;;;;;;0.40;0.10;;;;;;;12.47;38.34;98544.63;5088006;28;20036;-63
2022/02/02 22:11:41;;;;;;;0.55;0.20;;;;;;;12.31;40.21;98544.56;5084807;28;20376;-65
2022/02/02 22:14:13;;;;;;;0.47;0.15;;;;;;;12.43;38.48;98556.34;5071194;28;20016;-64
2022/02/02 22:16:40;;;;;;;0.15;0.00;;;;;;;12.28;40.69;98540.47;5077602;28;20032;-63
2022/02/02 22:19:06;;;;;;;0.60;0.10;;;;;;;12.35;40.68;98550.28;5073897;28;20239;-63
2022/02/02 22:21:31;;;;;;;0.40;0.13;;;;;;;12.26;39.75;98533.78;5072010;28;20031;-64
2022/02/02 22:23:57;;;;;;;0.63;0.35;;;;;;;12.63;38.23;98528.19;5076305;28;20027;-63
2022/02/02 22:26:23;;;;;;;0.13;0.10;;;;;;;12.66;38.44;98534.88;5055179;28;20091;-63
2022/02/02 22:28:48;;;;;;;0.82;0.20;;;;;;;12.52;38.34;98536.28;5088225;28;20070;-62
2022/02/02 22:31:14;;;;;;;0.00;0.00;;;;;;;12.65;37.93;98515.00;5093258;28;20386;-63
2022/02/02 22:33:40;;;;;;;0.10;0.10;;;;;;;12.58;37.40;98514.81;5084102;28;20012;-64
2022/02/02 22:36:05;;;;;;;0.93;0.20;;;;;;;12.63;38.74;98507.31;5090894;27;20618;-63